Alden, Alabama
Current Conditions -  °F | °C
As of 12:53 PM on Thursday 27 Nov 2014 (Local Time) from KBHM Reporting Station
Broken Clouds Broken Clouds  
Wind Chill:   Ceiling: 4000
Heat Index:   Visibility: 10mi
Dew Point: -2°   Wind: 9mph
Humidity: 52%   Direction: 350°N
Pressure: 30.39"   Gusts: NA
Location:  33.652°N, 86.9784°W
Report Text: KBHM 271853Z 35008KT 10SM BKN040 07/M02 A3039 RMK AO2 SLP291 T00721022
Loading
Personal Weather Stations






























Interactive Weather Map New forecast layout! Learn more

10-Day Weather Forecast

Advertisements
Track Severe Weather on mobile